Terminal Aerodrome Forecast
Issued by NWS

Home | Current Version | Previous Version | Text Only | Print | Product List | Glossary On
Versions: 1 2 3 4 5 6 7 8 9 10 11 12 13
000
FTUS44 KLIX 310500
TAFGPT
TAF
KGPT 310539Z 3106/0106 14003KT P6SM SCT018 SCT030 OVC250
     FM311500 16009KT P6SM SCT025 SCT250
     FM010000 17005KT P6SM SCT250=

USA.gov is the U.S. government's official web portal to all federal, state and local government web resources and services.